createdAt,value
2019-03-19T00:02:29.520Z,13.53
2019-03-19T00:04:59.267Z,13.56
2019-03-19T00:07:29.688Z,13.67
2019-03-19T00:09:59.589Z,13.60
2019-03-19T00:12:28.997Z,13.54
2019-03-19T00:14:58.448Z,13.48
2019-03-19T00:17:27.859Z,13.46
2019-03-19T00:19:57.229Z,13.39
2019-03-19T00:22:26.610Z,13.38
2019-03-19T00:24:55.969Z,13.35
2019-03-19T00:27:25.355Z,13.34
2019-03-19T00:29:54.730Z,13.32
2019-03-19T00:32:24.843Z,13.30
2019-03-19T00:34:54.560Z,13.24
2019-03-19T00:37:24.586Z,13.22
2019-03-19T00:39:53.960Z,13.15
2019-03-19T00:42:23.922Z,13.09
2019-03-19T00:44:53.301Z,12.97
2019-03-19T00:47:22.657Z,12.86
2019-03-19T00:49:52.974Z,12.74
2019-03-19T00:52:22.427Z,12.69
2019-03-19T00:54:51.805Z,12.65
2019-03-19T00:57:22.891Z,12.65
2019-03-19T00:59:53.838Z,12.63
2019-03-19T01:02:23.410Z,12.60
2019-03-19T01:04:52.778Z,12.55
2019-03-19T01:07:22.178Z,12.46
2019-03-19T01:09:51.571Z,12.38
2019-03-19T01:12:21.130Z,11.98
2019-03-19T01:14:50.487Z,12.26
2019-03-19T01:17:19.895Z,12.21
2019-03-19T01:19:49.269Z,12.06
2019-03-19T01:22:18.696Z,11.99
2019-03-19T01:24:48.128Z,11.95
2019-03-19T01:27:17.513Z,11.93
2019-03-19T01:29:46.912Z,11.86
2019-03-19T01:32:16.642Z,11.80
2019-03-19T01:34:46.039Z,11.78
2019-03-19T01:37:15.499Z,11.74
2019-03-19T01:39:44.919Z,11.65
2019-03-19T01:42:14.312Z,11.64
2019-03-19T01:44:44.026Z,11.58
2019-03-19T01:47:13.410Z,11.49
2019-03-19T01:49:43.219Z,11.43
2019-03-19T01:52:12.616Z,11.34
2019-03-19T01:54:42.039Z,11.28
2019-03-19T01:57:11.420Z,11.22
2019-03-19T01:59:40.786Z,11.12
2019-03-19T02:02:10.169Z,11.08
2019-03-19T02:04:39.590Z,11.04
2019-03-19T02:07:09.025Z,11.08
2019-03-19T02:09:38.840Z,11.09
2019-03-19T02:12:08.253Z,11.09
2019-03-19T02:14:37.655Z,11.12
2019-03-19T02:17:07.508Z,11.11
2019-03-19T02:19:36.936Z,11.12
2019-03-19T02:22:06.340Z,11.22
2019-03-19T02:24:35.687Z,11.29
2019-03-19T02:27:05.091Z,11.30
2019-03-19T02:29:34.466Z,11.29
2019-03-19T02:32:03.883Z,11.25
2019-03-19T02:34:33.252Z,11.17
2019-03-19T02:37:02.638Z,10.96
2019-03-19T02:39:32.849Z,10.97
2019-03-19T02:42:03.477Z,10.97
2019-03-19T02:44:34.102Z,10.89
2019-03-19T02:47:03.489Z,10.76
2019-03-19T02:49:32.911Z,10.71
2019-03-19T02:52:02.336Z,10.60
2019-03-19T02:54:31.745Z,10.54
2019-03-19T02:57:01.190Z,10.49
2019-03-19T02:59:30.594Z,10.37
2019-03-19T03:02:00.153Z,10.28
2019-03-19T03:04:29.551Z,10.19
2019-03-19T03:06:59.324Z,10.07
2019-03-19T03:09:28.730Z,9.98
2019-03-19T03:11:58.090Z,9.59
2019-03-19T03:14:27.452Z,9.96
2019-03-19T03:16:56.806Z,9.92
2019-03-19T03:19:26.208Z,9.85
2019-03-19T03:21:55.957Z,9.73
2019-03-19T03:24:25.349Z,9.76
2019-03-19T03:26:55.110Z,9.79
2019-03-19T03:29:24.526Z,9.79
2019-03-19T03:31:53.911Z,9.73
2019-03-19T03:34:23.271Z,9.61
2019-03-19T03:36:52.647Z,9.57
2019-03-19T03:39:22.463Z,9.50
2019-03-19T03:41:51.853Z,9.46
2019-03-19T03:44:21.681Z,9.37
2019-03-19T03:46:51.061Z,9.35
2019-03-19T03:49:20.463Z,9.31
2019-03-19T03:51:49.828Z,9.25
2019-03-19T03:54:19.286Z,9.20
2019-03-19T03:57:01.217Z,9.15
2019-03-19T03:59:19.799Z,9.12
2019-03-19T04:01:49.140Z,9.12
2019-03-19T04:04:18.546Z,9.08
2019-03-19T04:06:48.235Z,9.06
2019-03-19T04:09:17.612Z,8.99
2019-03-19T04:11:47.000Z,9.03
2019-03-19T04:14:17.343Z,9.03
2019-03-19T04:16:47.110Z,8.96
2019-03-19T04:19:16.443Z,8.92
2019-03-19T04:21:46.212Z,8.88
2019-03-19T04:24:15.833Z,8.87
2019-03-19T04:26:45.347Z,8.81
2019-03-19T04:29:15.033Z,8.78
2019-03-19T04:31:44.512Z,8.69
2019-03-19T04:34:13.944Z,8.64
2019-03-19T04:36:43.931Z,8.62
2019-03-19T04:39:14.475Z,8.63
2019-03-19T04:41:44.731Z,8.61
2019-03-19T04:44:14.523Z,8.64
2019-03-19T04:46:43.923Z,8.74
2019-03-19T04:49:14.412Z,8.80
2019-03-19T04:51:43.818Z,8.85
2019-03-19T04:54:13.166Z,8.94
2019-03-19T04:56:42.612Z,8.96
2019-03-19T04:59:12.023Z,7.16
2019-03-19T05:01:41.400Z,9.09
2019-03-19T05:04:11.165Z,9.13
2019-03-19T05:06:40.519Z,9.20
2019-03-19T05:09:09.948Z,9.42
2019-03-19T05:11:39.327Z,9.50
2019-03-19T05:14:09.097Z,9.44
2019-03-19T05:16:38.433Z,9.66
2019-03-19T05:19:07.828Z,9.58
2019-03-19T05:21:37.261Z,9.69
2019-03-19T05:24:06.704Z,9.75
2019-03-19T05:26:36.107Z,9.81
2019-03-19T05:29:05.531Z,9.78
2019-03-19T05:31:34.935Z,9.90
2019-03-19T05:34:04.383Z,9.94
2019-03-19T05:36:33.800Z,9.96
2019-03-19T05:39:04.095Z,10.26
2019-03-19T05:41:33.566Z,10.36
2019-03-19T05:44:02.933Z,10.52
2019-03-19T05:46:32.319Z,10.70
2019-03-19T05:49:01.658Z,10.70
2019-03-19T05:51:31.078Z,10.70
2019-03-19T05:54:00.422Z,10.63
2019-03-19T05:56:29.818Z,10.65
2019-03-19T05:58:59.172Z,10.96
2019-03-19T06:01:28.493Z,11.09
2019-03-19T06:03:57.848Z,11.16
2019-03-19T06:06:27.225Z,11.06
2019-03-19T06:08:56.611Z,11.51
2019-03-19T06:11:27.992Z,11.63
2019-03-19T06:13:57.420Z,11.27
2019-03-19T06:16:26.906Z,11.14
2019-03-19T06:18:56.309Z,10.62
2019-03-19T06:21:25.700Z,11.49
2019-03-19T06:23:55.071Z,11.14
2019-03-19T06:26:24.431Z,11.10
2019-03-19T06:28:53.851Z,11.10
2019-03-19T06:31:23.291Z,10.65
2019-03-19T06:33:52.686Z,10.94
2019-03-19T06:36:22.063Z,11.25
2019-03-19T06:38:51.448Z,11.30
2019-03-19T06:41:20.803Z,11.43
2019-03-19T06:43:50.176Z,11.58
2019-03-19T06:46:19.538Z,11.88
2019-03-19T06:48:48.951Z,11.86
2019-03-19T06:51:18.533Z,12.41
2019-03-19T06:53:47.942Z,12.80
2019-03-19T06:56:17.357Z,12.49
2019-03-19T06:58:46.729Z,12.97
2019-03-19T07:01:17.484Z,13.24
2019-03-19T07:03:47.065Z,12.98
2019-03-19T07:06:16.434Z,13.52
2019-03-19T07:08:46.154Z,13.49
2019-03-19T07:11:15.722Z,13.26
2019-03-19T07:13:45.820Z,13.51
2019-03-19T07:16:15.776Z,13.59
2019-03-19T07:18:45.236Z,13.62
2019-03-19T07:21:14.690Z,13.56
2019-03-19T07:23:44.954Z,13.09
2019-03-19T07:26:14.355Z,13.27
2019-03-19T07:28:43.730Z,13.41
2019-03-19T07:31:13.118Z,13.12
2019-03-19T07:34:04.369Z,13.34
2019-03-19T07:36:33.722Z,13.16
2019-03-19T07:39:04.404Z,12.91
2019-03-19T07:41:34.077Z,13.19
2019-03-19T07:44:03.886Z,13.18
2019-03-19T07:46:33.728Z,13.88
2019-03-19T07:49:03.119Z,14.37
2019-03-19T07:51:33.207Z,14.34
2019-03-19T07:54:02.594Z,14.68
2019-03-19T07:56:32.135Z,14.85
2019-03-19T07:59:01.703Z,14.81
2019-03-19T08:01:31.183Z,14.82
2019-03-19T08:04:00.555Z,15.09
2019-03-19T08:06:32.602Z,14.93
2019-03-19T08:09:01.443Z,15.11
2019-03-19T08:11:30.931Z,15.41
2019-03-19T08:14:00.342Z,15.42
2019-03-19T08:16:29.701Z,15.52
2019-03-19T08:18:59.091Z,15.55
2019-03-19T08:21:28.624Z,15.58
2019-03-19T08:23:59.497Z,15.77
2019-03-19T08:26:28.891Z,14.79
2019-03-19T08:28:58.343Z,16.09
2019-03-19T08:31:27.779Z,16.08
2019-03-19T08:33:57.610Z,16.55
2019-03-19T08:36:26.983Z,16.74
2019-03-19T08:41:44.778Z,16.67
2019-03-19T08:44:14.168Z,16.50
2019-03-19T08:46:44.571Z,16.85
2019-03-19T08:52:02.407Z,16.77
2019-03-19T08:54:32.527Z,17.26
2019-03-19T08:57:02.257Z,17.53
2019-03-19T08:59:31.706Z,17.09
2019-03-19T09:02:01.180Z,17.53
2019-03-19T09:04:31.440Z,17.32
2019-03-19T09:07:00.828Z,17.52
2019-03-19T09:09:30.249Z,17.33
2019-03-19T09:11:59.663Z,17.52
2019-03-19T09:14:29.322Z,17.66
2019-03-19T09:16:58.706Z,18.01
2019-03-19T09:19:28.131Z,17.90
2019-03-19T09:21:57.498Z,18.25
2019-03-19T09:24:26.899Z,18.29
2019-03-19T09:26:57.216Z,18.36
2019-03-19T09:29:26.675Z,18.23
2019-03-19T09:31:56.128Z,18.48
2019-03-19T09:34:25.570Z,18.56
2019-03-19T09:36:57.654Z,18.62
2019-03-19T09:39:26.234Z,17.86
2019-03-19T09:41:55.910Z,16.76
2019-03-19T09:44:25.281Z,16.90
2019-03-19T09:46:54.646Z,17.49
2019-03-19T09:49:24.034Z,17.96
2019-03-19T09:51:54.274Z,18.50
2019-03-19T09:54:23.655Z,18.52
2019-03-19T09:56:53.297Z,18.59
2019-03-19T09:59:27.022Z,18.38
2019-03-19T10:01:53.908Z,18.89
2019-03-19T10:04:23.375Z,18.92
2019-03-19T10:07:05.500Z,19.43
2019-03-19T10:09:39.557Z,19.32
2019-03-19T10:14:58.721Z,18.83
2019-03-19T10:17:28.552Z,19.04
2019-03-19T10:19:58.366Z,19.16
2019-03-19T10:22:28.832Z,19.67
2019-03-19T10:24:58.123Z,19.19
2019-03-19T10:27:29.574Z,18.59
2019-03-19T10:30:02.982Z,18.31
2019-03-19T10:35:31.693Z,18.99
2019-03-19T10:38:18.666Z,19.78
2019-03-19T10:40:48.087Z,20.03
2019-03-19T10:43:17.508Z,20.16
2019-03-19T10:45:46.892Z,20.31
2019-03-19T10:48:16.261Z,20.53
2019-03-19T10:50:45.664Z,20.00
2019-03-19T10:53:16.013Z,20.16
2019-03-19T10:55:45.429Z,20.33
2019-03-19T10:58:14.794Z,20.36
2019-03-19T11:00:44.194Z,20.71
2019-03-19T11:03:14.581Z,20.73
2019-03-19T11:05:44.121Z,21.23
2019-03-19T11:08:13.563Z,21.46
2019-03-19T11:10:42.988Z,20.92
2019-03-19T11:13:12.386Z,20.97
2019-03-19T11:15:41.771Z,20.85
2019-03-19T11:18:11.119Z,21.02
2019-03-19T11:20:40.629Z,21.27
2019-03-19T11:23:10.044Z,21.42
2019-03-19T11:25:39.476Z,21.72
2019-03-19T11:28:08.859Z,21.42
2019-03-19T11:30:39.165Z,21.44
2019-03-19T11:33:08.560Z,21.59
2019-03-19T11:35:38.073Z,21.66
2019-03-19T11:38:07.563Z,21.75
2019-03-19T11:40:36.975Z,21.88
2019-03-19T11:43:06.528Z,22.46
2019-03-19T11:45:35.954Z,22.69
2019-03-19T11:48:05.590Z,22.77
2019-03-19T11:50:35.006Z,22.93
2019-03-19T11:53:05.183Z,22.83
2019-03-19T11:55:34.773Z,22.93
2019-03-19T11:58:04.233Z,22.64
2019-03-19T12:00:42.548Z,22.96
2019-03-19T12:03:16.066Z,22.76
2019-03-19T12:05:42.961Z,23.02
2019-03-19T12:08:12.386Z,23.06
2019-03-19T12:10:41.753Z,23.10
2019-03-19T12:13:11.161Z,23.13
2019-03-19T12:15:40.538Z,23.51
2019-03-19T12:18:10.208Z,23.82
2019-03-19T12:20:39.663Z,23.68
2019-03-19T12:23:09.020Z,23.76
2019-03-19T12:25:38.433Z,23.54
2019-03-19T12:28:07.787Z,23.06
2019-03-19T12:30:37.119Z,22.91
2019-03-19T12:33:06.494Z,23.00
2019-03-19T12:35:35.866Z,23.32
2019-03-19T12:38:05.405Z,23.37
2019-03-19T12:40:37.305Z,23.30
2019-03-19T12:43:06.061Z,23.17
2019-03-19T12:45:35.413Z,23.01
2019-03-19T12:48:04.876Z,23.00
2019-03-19T12:50:34.272Z,22.94
2019-03-19T12:53:04.216Z,22.96
2019-03-19T12:55:33.563Z,22.99
2019-03-19T12:58:03.051Z,22.99
2019-03-19T13:00:34.767Z,22.71
2019-03-19T13:03:03.649Z,22.58
2019-03-19T13:05:33.001Z,22.68
2019-03-19T13:08:02.377Z,22.60
2019-03-19T13:10:31.764Z,22.37
2019-03-19T13:13:01.144Z,22.54
2019-03-19T13:15:31.025Z,22.23
2019-03-19T13:18:00.537Z,21.96
2019-03-19T13:20:29.902Z,21.70
2019-03-19T13:22:59.309Z,21.17
2019-03-19T13:25:28.768Z,21.07
2019-03-19T13:27:58.131Z,20.02
2019-03-19T13:30:27.555Z,20.82
2019-03-19T13:32:56.955Z,20.79
2019-03-19T13:35:26.339Z,20.64
2019-03-19T13:37:55.834Z,20.67
2019-03-19T13:40:25.406Z,20.70
2019-03-19T13:42:54.786Z,20.69
2019-03-19T13:45:24.557Z,20.73
2019-03-19T13:47:53.900Z,20.64
2019-03-19T13:50:23.556Z,20.54
2019-03-19T13:52:53.203Z,20.53
2019-03-19T13:55:24.045Z,20.53
2019-03-19T13:57:53.779Z,20.62
2019-03-19T14:00:23.680Z,20.47
2019-03-19T14:02:53.072Z,20.38
2019-03-19T14:05:22.814Z,20.32
2019-03-19T14:07:52.185Z,20.14
2019-03-19T14:10:21.828Z,20.12
2019-03-19T14:12:51.245Z,20.10
2019-03-19T14:15:20.642Z,20.16
2019-03-19T14:17:49.990Z,19.68
2019-03-19T14:20:19.463Z,19.96
2019-03-19T14:22:49.674Z,19.98
2019-03-19T14:25:19.148Z,19.67
2019-03-19T14:27:48.637Z,19.56
2019-03-19T14:30:18.848Z,19.78
2019-03-19T14:32:48.259Z,19.84
2019-03-19T14:35:17.619Z,19.82
2019-03-19T14:37:47.135Z,19.76
2019-03-19T14:40:17.206Z,19.71
2019-03-19T14:42:46.588Z,19.58
2019-03-19T14:45:16.408Z,19.44
2019-03-19T14:47:46.313Z,19.43
2019-03-19T14:50:16.264Z,19.33
2019-03-19T14:52:45.727Z,19.32
2019-03-19T14:55:15.212Z,19.17
2019-03-19T14:57:44.732Z,19.00
2019-03-19T15:00:15.572Z,18.79
2019-03-19T15:02:45.026Z,18.67
2019-03-19T15:05:14.666Z,18.63
2019-03-19T15:07:44.269Z,18.55
2019-03-19T15:10:14.932Z,18.41
2019-03-19T15:12:45.157Z,18.31
2019-03-19T15:15:15.840Z,18.31
2019-03-19T15:17:45.740Z,18.25
2019-03-19T15:20:17.141Z,18.10
2019-03-19T15:22:46.511Z,18.00
2019-03-19T15:25:15.914Z,17.89
2019-03-19T15:27:45.373Z,17.79
2019-03-19T15:30:15.184Z,17.73
2019-03-19T15:32:44.698Z,17.78
2019-03-19T15:35:14.251Z,17.73
2019-03-19T15:37:54.235Z,17.69
2019-03-19T15:40:23.790Z,17.74
2019-03-19T15:42:55.169Z,17.82
2019-03-19T15:45:24.593Z,17.85
2019-03-19T15:47:54.021Z,17.78
2019-03-19T15:50:23.377Z,17.74
2019-03-19T15:52:52.862Z,17.64
2019-03-19T15:55:22.244Z,17.59
2019-03-19T15:57:52.018Z,17.52
2019-03-19T16:00:21.398Z,17.43
2019-03-19T16:02:51.226Z,17.36
2019-03-19T16:05:20.713Z,17.29
2019-03-19T16:07:50.090Z,17.20
2019-03-19T16:10:19.453Z,17.06
2019-03-19T16:12:48.841Z,16.99
2019-03-19T16:15:19.170Z,16.95
2019-03-19T16:17:49.198Z,16.87
2019-03-19T16:20:18.538Z,16.83
2019-03-19T16:22:47.920Z,16.66
2019-03-19T16:25:17.304Z,16.49
2019-03-19T16:27:47.088Z,16.40
2019-03-19T16:30:17.551Z,16.38
2019-03-19T16:32:46.937Z,16.31
2019-03-19T16:35:19.005Z,16.28
2019-03-19T16:37:48.428Z,16.17
2019-03-19T16:40:18.347Z,15.99
2019-03-19T16:42:47.686Z,15.93
2019-03-19T16:45:18.397Z,15.85
2019-03-19T16:47:48.044Z,15.77
2019-03-19T16:50:17.459Z,15.71
2019-03-19T16:52:46.949Z,15.68
2019-03-19T16:55:16.560Z,15.64
2019-03-19T16:57:46.163Z,15.57
2019-03-19T17:00:17.129Z,15.53
2019-03-19T17:02:46.819Z,15.51
2019-03-19T17:05:17.020Z,15.40
2019-03-19T17:07:46.405Z,15.32
2019-03-19T17:10:16.420Z,15.31
2019-03-19T17:12:45.779Z,15.30
2019-03-19T17:15:15.978Z,15.20
2019-03-19T17:17:45.486Z,15.05
2019-03-19T17:20:15.363Z,14.96
2019-03-19T17:22:44.833Z,14.96
2019-03-19T17:25:15.022Z,14.93
2019-03-19T17:27:44.489Z,14.81
2019-03-19T17:30:24.021Z,14.77
2019-03-19T17:32:53.403Z,14.74
2019-03-19T17:35:22.866Z,14.67
2019-03-19T17:37:52.250Z,14.71
2019-03-19T17:40:21.705Z,14.73
2019-03-19T17:42:51.907Z,14.70
2019-03-19T17:45:21.364Z,14.67
2019-03-19T17:47:51.129Z,14.60
2019-03-19T17:50:20.774Z,14.53
2019-03-19T17:52:50.850Z,14.52
2019-03-19T17:55:20.346Z,14.51
2019-03-19T17:57:49.797Z,14.40
2019-03-19T18:00:24.584Z,14.48
2019-03-19T18:02:54.102Z,14.46
2019-03-19T18:05:24.734Z,14.42
2019-03-19T18:07:54.467Z,14.47
2019-03-19T18:10:23.961Z,14.40
2019-03-19T18:12:53.306Z,14.31
2019-03-19T18:15:22.725Z,14.36
2019-03-19T18:17:52.180Z,14.40
2019-03-19T18:20:21.814Z,14.36
2019-03-19T18:22:51.533Z,14.29
2019-03-19T18:25:21.109Z,14.21
2019-03-19T18:27:50.500Z,14.16
2019-03-19T18:30:19.984Z,14.13
2019-03-19T18:32:49.766Z,14.05
2019-03-19T18:35:19.173Z,14.05
2019-03-19T18:37:48.667Z,14.11
2019-03-19T18:40:18.031Z,14.05
2019-03-19T18:42:47.583Z,13.98
2019-03-19T18:45:17.235Z,13.86
2019-03-19T18:50:41.367Z,13.85
2019-03-19T18:53:10.737Z,13.87
2019-03-19T18:55:57.851Z,13.95
2019-03-19T18:58:27.813Z,13.90
2019-03-19T19:00:57.339Z,13.80
2019-03-19T19:03:26.867Z,13.71
2019-03-19T19:05:56.751Z,13.69
2019-03-19T19:08:26.121Z,13.67
2019-03-19T19:10:55.465Z,13.66
2019-03-19T19:13:24.955Z,13.63
2019-03-19T19:15:54.361Z,13.70
2019-03-19T19:18:23.743Z,13.70
2019-03-19T19:20:53.262Z,13.54
2019-03-19T19:23:22.717Z,13.45
2019-03-19T19:25:52.180Z,13.49
2019-03-19T19:28:21.516Z,13.41
2019-03-19T19:30:50.929Z,13.34
2019-03-19T19:33:20.270Z,13.38
2019-03-19T19:35:49.634Z,13.83
2019-03-19T19:38:18.995Z,14.45
2019-03-19T19:40:48.462Z,14.41
2019-03-19T19:43:17.894Z,14.32
2019-03-19T19:45:47.346Z,14.22
2019-03-19T19:48:17.690Z,14.39
2019-03-19T19:50:47.077Z,14.14
2019-03-19T19:53:16.473Z,14.02
2019-03-19T19:55:46.032Z,13.89
2019-03-19T19:58:15.443Z,13.83
2019-03-19T20:00:44.790Z,13.72
2019-03-19T20:03:15.727Z,13.64
2019-03-19T20:05:45.559Z,13.66
2019-03-19T20:08:14.973Z,13.73
2019-03-19T20:10:44.408Z,13.35
2019-03-19T20:13:14.333Z,13.18
2019-03-19T20:15:43.859Z,13.07
2019-03-19T20:18:13.241Z,12.91
2019-03-19T20:20:42.917Z,12.83
2019-03-19T20:23:12.344Z,12.82
2019-03-19T20:25:41.775Z,12.84
2019-03-19T20:28:11.344Z,12.85
2019-03-19T20:30:41.019Z,12.63
2019-03-19T20:33:10.511Z,12.59
2019-03-19T20:35:39.907Z,12.47
2019-03-19T20:38:09.263Z,12.50
2019-03-19T20:40:38.767Z,12.51
2019-03-19T20:43:08.136Z,12.50
2019-03-19T20:45:37.541Z,12.49
2019-03-19T20:48:06.924Z,12.27
2019-03-19T20:50:36.362Z,12.27
2019-03-19T20:53:05.904Z,12.22
2019-03-19T20:55:35.239Z,12.21
2019-03-19T20:58:04.834Z,12.19
2019-03-19T21:00:34.348Z,12.28
2019-03-19T21:03:03.918Z,12.32
2019-03-19T21:05:33.295Z,12.09
2019-03-19T21:08:02.675Z,11.88
2019-03-19T21:10:32.147Z,11.88
2019-03-19T21:13:01.570Z,11.83
2019-03-19T21:15:32.055Z,11.78
2019-03-19T21:18:01.851Z,11.72
2019-03-19T21:20:31.611Z,11.73
2019-03-19T21:23:01.071Z,11.68
2019-03-19T21:25:30.503Z,11.56
2019-03-19T21:27:59.912Z,11.45
2019-03-19T21:30:29.360Z,11.41
2019-03-19T21:32:58.821Z,11.37
2019-03-19T21:35:28.315Z,11.37
2019-03-19T21:37:57.687Z,11.33
2019-03-19T21:40:27.077Z,11.24
2019-03-19T21:42:56.480Z,11.17
2019-03-19T21:45:25.874Z,11.16
2019-03-19T21:47:55.265Z,11.10
2019-03-19T21:50:24.630Z,11.05
2019-03-19T21:52:54.129Z,10.90
2019-03-19T21:55:23.494Z,10.88
2019-03-19T21:57:52.873Z,10.83
2019-03-19T22:00:22.293Z,10.78
2019-03-19T22:02:51.734Z,10.70
2019-03-19T22:05:21.354Z,10.64
2019-03-19T22:07:50.683Z,10.61
2019-03-19T22:10:20.279Z,10.60
2019-03-19T22:12:49.923Z,10.49
2019-03-19T22:15:19.438Z,10.25
2019-03-19T22:17:48.826Z,10.31
2019-03-19T22:20:18.288Z,10.26
2019-03-19T22:22:47.680Z,10.25
2019-03-19T22:25:17.158Z,10.19
2019-03-19T22:27:46.567Z,10.17
2019-03-19T22:30:16.487Z,10.16
2019-03-19T22:32:45.900Z,10.11
2019-03-19T22:35:15.448Z,10.07
2019-03-19T22:37:44.838Z,10.02
2019-03-19T22:40:15.512Z,10.08
2019-03-19T22:42:44.897Z,9.99
2019-03-19T22:45:15.228Z,9.93
2019-03-19T22:47:44.621Z,9.98
2019-03-19T22:50:14.927Z,9.96
2019-03-19T22:52:44.502Z,9.95
2019-03-19T22:55:14.165Z,9.95
2019-03-19T22:57:43.649Z,9.94
2019-03-19T23:00:23.481Z,8.53
2019-03-19T23:02:52.896Z,9.85
2019-03-19T23:05:22.249Z,9.76
2019-03-19T23:07:51.637Z,9.75
2019-03-19T23:10:22.818Z,9.77
2019-03-19T23:12:52.247Z,9.74
2019-03-19T23:15:21.666Z,9.75
2019-03-19T23:17:51.077Z,9.67
2019-03-19T23:20:20.493Z,9.70
2019-03-19T23:22:49.905Z,9.71
2019-03-19T23:25:19.546Z,9.61
2019-03-19T23:27:48.925Z,9.58
2019-03-19T23:30:18.331Z,9.57
2019-03-19T23:32:48.227Z,9.54
2019-03-19T23:35:17.581Z,9.53
2019-03-19T23:37:46.896Z,9.52
2019-03-19T23:40:15.973Z,9.51
2019-03-19T23:42:45.311Z,9.47
2019-03-19T23:45:15.116Z,9.47
2019-03-19T23:47:44.727Z,9.42
2019-03-19T23:50:14.316Z,9.38
2019-03-19T23:52:43.782Z,9.39
2019-03-19T23:55:13.157Z,9.39
2019-03-19T23:57:42.545Z,9.39
